Time;durP1;ratioP1;P1;durP2;ratioP2;P2;SDS_P1;SDS_P2;PMS_P1;PMS_P2;Temp;Humidity;BMP_temperature;BMP_pressure;BME280_temperature;BME280_humidity;BME280_pressure;Samples;Min_cycle;Max_cycle;Signal;HPM_P1;HPM_P2
2022/03/04 00:01:12;;;;;;;17.80;13.10;;;;;;;-1.65;83.16;95831.06;5032149;28;24833;-74
2022/03/04 00:03:39;;;;;;;15.97;12.97;;;;;;;-1.60;82.78;95829.28;5031908;28;24441;-73
2022/03/04 00:06:06;;;;;;;16.73;13.43;;;;;;;-1.65;83.51;95831.06;5032022;28;24435;-73
2022/03/04 00:08:32;;;;;;;15.02;13.45;;;;;;;-1.72;84.05;95838.75;5031964;28;24451;-74
2022/03/04 00:10:59;;;;;;;18.25;13.55;;;;;;;-1.72;83.41;95843.00;5032018;28;25006;-74
2022/03/04 00:13:25;;;;;;;18.95;13.98;;;;;;;-1.75;82.16;95841.34;5032352;28;24438;-74
2022/03/04 00:15:51;;;;;;;19.17;15.45;;;;;;;-1.72;82.63;95840.47;5032012;28;24427;-74
2022/03/04 00:18:19;;;;;;;15.68;14.00;;;;;;;-1.76;80.99;95843.91;5031650;28;24439;-74
2022/03/04 00:20:46;;;;;;;21.38;15.40;;;;;;;-1.86;82.08;95844.88;5031779;28;24498;-74
2022/03/04 00:23:12;;;;;;;22.77;16.92;;;;;;;-1.84;82.74;95844.00;5032143;28;24501;-74
2022/03/04 00:25:39;;;;;;;21.17;17.17;;;;;;;-1.85;83.61;95839.81;5031601;28;24478;-74
2022/03/04 00:28:05;;;;;;;22.83;19.08;;;;;;;-1.96;85.26;95844.19;5031753;28;24454;-74
2022/03/04 00:30:32;;;;;;;26.83;20.80;;;;;;;-1.99;85.96;95850.13;5031958;28;24432;-74
2022/03/04 00:32:59;;;;;;;24.00;20.60;;;;;;;-1.95;85.88;95848.41;5031995;28;24506;-74
2022/03/04 00:35:27;;;;;;;32.78;26.20;;;;;;;-2.23;88.49;95846.19;5031650;28;24443;-74
2022/03/04 00:37:53;;;;;;;32.72;26.20;;;;;;;-2.19;90.43;95846.97;5031414;28;24451;-74
2022/03/04 00:40:20;;;;;;;36.67;25.55;;;;;;;-2.10;90.64;95857.03;5031777;28;24426;-74
2022/03/04 00:42:46;;;;;;;35.13;24.30;;;;;;;-2.04;90.47;95845.97;5031687;28;24435;-74
2022/03/04 00:45:13;;;;;;;37.72;24.50;;;;;;;-2.00;89.36;95850.16;5031495;28;24435;-74
2022/03/04 00:47:39;;;;;;;29.25;22.42;;;;;;;-2.12;90.93;95848.59;5031450;28;24420;-74
2022/03/04 00:50:07;;;;;;;27.15;21.58;;;;;;;-2.08;90.75;95850.22;5031437;28;24822;-74
2022/03/04 00:52:35;;;;;;;31.83;23.08;;;;;;;-2.14;90.59;95842.72;5031490;28;24436;-73
2022/03/04 00:55:02;;;;;;;45.05;29.77;;;;;;;-2.16;91.12;95846.94;5031083;28;24440;-74
2022/03/04 00:57:28;;;;;;;64.70;37.38;;;;;;;-2.26;91.26;95840.34;5030880;28;24428;-74
2022/03/04 00:59:55;;;;;;;50.60;30.93;;;;;;;-2.14;90.81;95839.34;5031238;28;24562;-74
2022/03/04 01:02:21;;;;;;;42.25;29.38;;;;;;;-2.14;91.15;95841.88;5031163;28;24435;-74
2022/03/04 01:04:47;;;;;;;50.15;29.23;;;;;;;-2.13;89.75;95841.84;5031183;28;24436;-74
2022/03/04 01:07:14;;;;;;;37.45;26.05;;;;;;;-2.07;89.88;95843.47;5031082;28;24839;-74
2022/03/04 01:09:42;;;;;;;25.27;16.35;;;;;;;-2.11;86.88;95847.75;5030876;28;24444;-73
2022/03/04 01:12:09;;;;;;;18.70;14.00;;;;;;;-2.25;86.59;95844.53;5031136;28;24786;-74
2022/03/04 01:14:35;;;;;;;16.50;13.83;;;;;;;-2.43;88.85;95843.03;5031076;28;24435;-74
2022/03/04 01:17:02;;;;;;;27.30;18.13;;;;;;;-2.43;89.14;95840.50;5030894;28;24423;-74
2022/03/04 01:19:28;;;;;;;26.65;21.13;;;;;;;-2.41;89.20;95841.34;5030832;28;24431;-74
2022/03/04 01:21:55;;;;;;;30.58;23.00;;;;;;;-2.36;90.46;95839.59;5030906;28;24865;-74
2022/03/04 01:24:21;;;;;;;21.15;17.23;;;;;;;-2.35;89.06;95845.50;5030936;28;24434;-74
2022/03/04 01:26:49;;;;;;;17.67;14.00;;;;;;;-2.30;87.34;95836.13;5030767;28;24424;-74
2022/03/04 01:29:16;;;;;;;15.60;13.30;;;;;;;-2.40;87.04;95835.41;5030659;28;24448;-74
2022/03/04 01:31:42;;;;;;;17.15;14.40;;;;;;;-2.55;87.38;95836.41;5030589;28;24432;-74
2022/03/04 01:34:08;;;;;;;17.10;15.38;;;;;;;-2.75;89.24;95834.06;5031064;28;24454;-74
2022/03/04 01:36:35;;;;;;;18.77;15.33;;;;;;;-2.82;89.19;95836.69;5030813;28;24478;-74
2022/03/04 01:39:02;;;;;;;19.88;16.55;;;;;;;-2.85;90.22;95834.19;5030742;28;24428;-74
2022/03/04 01:41:28;;;;;;;21.10;16.90;;;;;;;-2.67;88.22;95833.97;5030523;28;24937;-74
2022/03/04 01:43:56;;;;;;;19.83;15.25;;;;;;;-2.61;87.06;95828.88;5030920;28;24426;-74
2022/03/04 01:46:28;;;;;;;20.17;15.75;;;;;;;-2.74;86.82;95843.38;5030781;28;24515;-74
2022/03/04 01:48:54;;;;;;;20.93;15.83;;;;;;;-2.83;86.72;95835.00;5030686;28;24833;-74
2022/03/04 01:51:21;;;;;;;21.17;16.52;;;;;;;-3.02;87.89;95830.13;5031021;28;24546;-74
2022/03/04 01:53:47;;;;;;;19.13;16.88;;;;;;;-3.23;89.01;95832.81;5030799;28;24432;-74
2022/03/04 01:56:14;;;;;;;19.90;16.25;;;;;;;-3.20;88.71;95820.97;5030155;28;24949;-74
2022/03/04 01:58:41;;;;;;;16.92;14.80;;;;;;;-3.08;87.77;95814.94;5030353;28;24424;-74
2022/03/04 02:01:09;;;;;;;20.88;15.10;;;;;;;-3.05;88.77;95821.69;5030743;28;24431;-74
2022/03/04 02:03:35;;;;;;;18.15;14.90;;;;;;;-3.08;87.74;95817.50;5034411;28;24428;-74
2022/03/04 02:06:01;;;;;;;16.85;14.75;;;;;;;-3.14;87.37;95812.50;5034305;28;24427;-74
2022/03/04 02:08:28;;;;;;;28.13;15.27;;;;;;;-3.11;88.02;95815.00;5033890;28;24428;-74
2022/03/04 02:10:55;;;;;;;25.10;19.48;;;;;;;-3.15;88.88;95815.88;5034682;28;24420;-74
2022/03/04 02:13:22;;;;;;;26.33;23.45;;;;;;;-3.29;91.68;95818.53;5034652;28;24485;-74
2022/03/04 02:15:49;;;;;;;21.45;18.15;;;;;;;-3.25;92.41;95815.13;5034467;28;24447;-75
2022/03/04 02:18:18;;;;;;;20.00;16.08;;;;;;;-3.22;92.47;95804.97;5034209;28;24427;-74
2022/03/04 02:20:46;;;;;;;17.83;15.00;;;;;;;-3.10;92.37;95804.00;5034557;28;24424;-75
2022/03/04 02:23:14;;;;;;;22.63;14.77;;;;;;;-3.02;91.59;95802.25;5034367;28;24428;-74
2022/03/04 02:25:42;;;;;;;16.92;15.13;;;;;;;-2.99;90.57;95801.38;5034118;28;24447;-74
2022/03/04 02:28:09;;;;;;;17.97;15.30;;;;;;;-2.95;90.57;95808.94;5034145;28;24436;-74
2022/03/04 02:30:36;;;;;;;18.70;14.80;;;;;;;-2.95;90.16;95806.41;5034384;28;24454;-74
2022/03/04 02:33:04;;;;;;;17.80;13.77;;;;;;;-2.88;90.18;95807.19;5034053;28;24464;-74
2022/03/04 02:35:31;;;;;;;22.27;15.32;;;;;;;-2.92;90.13;95803.84;5033959;28;24466;-74
2022/03/04 02:37:58;;;;;;;17.70;14.00;;;;;;;-2.81;89.99;95808.81;5034193;28;24447;-73
2022/03/04 02:40:26;;;;;;;19.13;15.38;;;;;;;-2.85;90.05;95807.16;5033913;28;24435;-73
2022/03/04 02:42:53;;;;;;;18.30;14.90;;;;;;;-3.06;87.49;95815.78;5034165;28;24482;-73
2022/03/04 02:45:20;;;;;;;16.75;13.85;;;;;;;-3.24;87.64;95821.03;5033727;28;24478;-73
2022/03/04 02:47:46;;;;;;;16.38;14.57;;;;;;;-3.17;87.19;95815.88;5033709;28;24431;-74
2022/03/04 02:50:13;;;;;;;18.92;14.40;;;;;;;-3.29;87.64;95818.53;5033895;28;24451;-74
2022/03/04 02:52:40;;;;;;;19.52;15.07;;;;;;;-3.36;89.37;95819.44;5033965;28;24428;-73
2022/03/04 02:55:11;;;;;;;18.80;14.50;;;;;;;-3.33;90.02;95818.56;5033823;28;24809;-74
2022/03/04 02:57:40;;;;;;;21.80;15.70;;;;;;;-3.30;89.33;95819.41;5033691;28;25187;-74
2022/03/04 03:00:07;;;;;;;18.52;16.40;;;;;;;-3.19;89.97;95829.41;5034029;28;24435;-73
2022/03/04 03:02:34;;;;;;;19.40;15.67;;;;;;;-3.22;90.72;95832.00;5033776;28;24454;-73
2022/03/04 03:05:01;;;;;;;20.60;16.48;;;;;;;-3.21;90.43;95826.91;5034197;28;24427;-74
2022/03/04 03:07:28;;;;;;;18.52;16.55;;;;;;;-3.30;88.97;95834.59;5033558;28;24438;-74
2022/03/04 03:09:54;;;;;;;19.25;15.38;;;;;;;-3.20;89.68;95835.34;5033585;28;24813;-74
2022/03/04 03:12:21;;;;;;;29.42;20.35;;;;;;;-3.28;88.18;95837.09;5033350;28;24412;-74
2022/03/04 03:14:49;;;;;;;58.08;42.58;;;;;;;-3.28;89.26;95837.09;5033675;28;24780;-73
2022/03/04 03:17:15;;;;;;;47.47;36.15;;;;;;;-3.29;87.50;95832.91;5033511;28;24432;-74
2022/03/04 03:19:42;;;;;;;36.83;27.70;;;;;;;-3.28;86.38;95840.47;5033402;28;24435;-74
2022/03/04 03:22:09;;;;;;;23.65;17.95;;;;;;;-3.40;87.72;95835.50;5033382;28;24475;-73
2022/03/04 03:24:35;;;;;;;20.55;16.15;;;;;;;-3.38;85.56;95828.72;5033838;28;24500;-74
2022/03/04 03:27:01;;;;;;;19.65;16.73;;;;;;;-3.49;88.01;95826.25;5033355;28;24431;-74
2022/03/04 03:29:28;;;;;;;21.88;16.20;;;;;;;-3.51;88.09;95827.97;5033401;28;24494;-73
2022/03/04 03:31:56;;;;;;;22.48;15.77;;;;;;;-3.56;88.97;95823.78;5033489;28;24420;-73
2022/03/04 03:34:22;;;;;;;21.42;15.38;;;;;;;-3.64;90.51;95828.91;5033348;28;24416;-74
2022/03/04 03:36:49;;;;;;;16.23;13.60;;;;;;;-3.88;94.66;95824.03;5033028;28;24518;-74
2022/03/04 03:39:15;;;;;;;15.88;12.60;;;;;;;-3.67;94.49;95826.38;5032872;28;24805;-74
2022/03/04 03:41:42;;;;;;;18.80;13.10;;;;;;;-3.65;93.82;95814.56;5032938;28;24420;-74
2022/03/04 03:44:08;;;;;;;17.35;12.93;;;;;;;-3.62;94.42;95823.84;5033024;28;24777;-73
2022/03/04 03:46:35;;;;;;;14.43;11.50;;;;;;;-3.58;93.75;95818.75;5032828;28;24428;-74
2022/03/04 03:49:03;;;;;;;13.50;12.13;;;;;;;-3.50;92.93;95823.75;5032605;28;24427;-74
2022/03/04 03:51:29;;;;;;;14.90;12.65;;;;;;;-3.51;92.59;95822.91;5032896;28;24434;-74
2022/03/04 03:53:56;;;;;;;17.15;14.00;;;;;;;-3.51;89.71;95825.44;5032818;28;24428;-74
2022/03/04 03:56:22;;;;;;;18.63;13.65;;;;;;;-3.67;91.99;95819.66;5032549;28;24451;-74
2022/03/04 03:58:48;;;;;;;17.00;13.27;;;;;;;-3.68;92.78;95823.03;5032771;28;24454;-73
2022/03/04 04:01:15;;;;;;;17.07;12.93;;;;;;;-3.71;90.74;95818.00;5033029;28;24488;-73
2022/03/04 04:03:42;;;;;;;17.88;13.60;;;;;;;-3.66;86.99;95825.56;5032940;28;24458;-73
2022/03/04 04:06:09;;;;;;;16.30;14.32;;;;;;;-3.80;89.20;95823.13;5032613;28;24420;-74
2022/03/04 04:08:36;;;;;;;17.05;14.23;;;;;;;-3.96;89.24;95819.00;5032424;28;24435;-73
2022/03/04 04:11:03;;;;;;;16.98;14.88;;;;;;;-4.07;93.00;95825.81;5032730;28;24451;-74
2022/03/04 04:13:29;;;;;;;18.67;15.23;;;;;;;-4.07;92.50;95830.88;5032425;28;24424;-74
2022/03/04 04:15:55;;;;;;;18.33;14.85;;;;;;;-4.17;94.04;95835.97;5032225;28;24798;-74
2022/03/04 04:18:22;;;;;;;22.38;16.08;;;;;;;-4.13;93.43;95831.72;5032439;28;24443;-74
2022/03/04 04:20:48;;;;;;;18.92;16.10;;;;;;;-4.06;90.51;95832.53;5032851;28;24435;-74
2022/03/04 04:23:16;;;;;;;18.23;16.33;;;;;;;-4.15;90.29;95834.28;5032800;28;24439;-74
2022/03/04 04:25:43;;;;;;;22.27;14.85;;;;;;;-4.35;94.15;95835.19;5031953;28;24430;-73
2022/03/04 04:28:09;;;;;;;29.50;16.40;;;;;;;-4.32;94.22;95836.03;5032426;28;24439;-73
2022/03/04 04:30:36;;;;;;;19.33;16.20;;;;;;;-4.23;94.31;95835.97;5032521;28;24544;-73
2022/03/04 04:33:03;;;;;;;18.02;14.93;;;;;;;-4.14;93.71;95841.00;5032433;28;24415;-74
2022/03/04 04:35:29;;;;;;;17.30;14.60;;;;;;;-4.01;91.48;95841.78;5032551;28;24415;-73
2022/03/04 04:37:56;;;;;;;19.83;15.05;;;;;;;-4.00;91.79;95843.47;5032153;28;24424;-73
2022/03/04 04:40:24;;;;;;;16.77;14.52;;;;;;;-4.07;91.02;95844.34;5032391;28;24450;-73
2022/03/04 04:42:50;;;;;;;17.10;15.27;;;;;;;-4.16;90.71;95839.31;5032151;28;24428;-74
2022/03/04 04:45:17;;;;;;;20.30;15.90;;;;;;;-4.32;92.68;95845.31;5032025;28;24466;-74
2022/03/04 04:47:43;;;;;;;20.53;16.37;;;;;;;-4.24;92.92;95849.47;5032066;28;24470;-73
2022/03/04 04:50:10;;;;;;;21.58;15.90;;;;;;;-4.14;92.23;95848.59;5031919;28;24446;-74
2022/03/04 04:52:37;;;;;;;19.83;14.55;;;;;;;-4.03;91.91;95855.28;5032123;28;24446;-73
2022/03/04 04:55:04;;;;;;;22.23;14.70;;;;;;;-3.96;90.86;95847.66;5031569;28;24817;-74
2022/03/04 04:57:31;;;;;;;18.35;14.77;;;;;;;-3.96;91.17;95849.38;5031073;28;24455;-73
2022/03/04 04:59:58;;;;;;;17.10;14.77;;;;;;;-3.93;90.37;95854.38;5031819;28;24429;-74
2022/03/04 05:02:24;;;;;;;18.75;14.10;;;;;;;-4.00;90.34;95857.81;5032057;28;24428;-73
2022/03/04 05:04:51;;;;;;;16.83;14.10;;;;;;;-3.98;90.95;95867.06;5032012;28;25034;-73
2022/03/04 05:07:17;;;;;;;17.47;13.87;;;;;;;-3.97;90.71;95867.91;5032259;28;24439;-74
2022/03/04 05:09:44;;;;;;;16.40;13.73;;;;;;;-3.94;90.93;95866.19;5031568;28;24455;-74
2022/03/04 05:12:10;;;;;;;17.65;14.50;;;;;;;-3.94;91.19;95873.78;5032307;28;24428;-73
2022/03/04 05:14:38;;;;;;;16.85;15.07;;;;;;;-3.84;90.82;95868.69;5031750;28;24453;-74
2022/03/04 05:17:05;;;;;;;22.88;15.70;;;;;;;-4.02;89.67;95867.94;5031955;28;24790;-73
2022/03/04 05:19:32;;;;;;;18.58;14.52;;;;;;;-4.26;89.71;95875.63;5032498;28;24424;-73
2022/03/04 05:21:58;;;;;;;20.23;14.50;;;;;;;-4.24;90.96;95866.34;5031052;28;24427;-73
2022/03/04 05:24:25;;;;;;;16.08;13.65;;;;;;;-4.27;91.03;95866.34;5031017;28;24415;-73
2022/03/04 05:26:51;;;;;;;17.70;14.38;;;;;;;-4.31;90.82;95860.44;5030775;28;24486;-72
2022/03/04 05:29:18;;;;;;;21.05;15.57;;;;;;;-4.24;90.88;95863.81;5031205;28;24987;-73
2022/03/04 05:31:46;;;;;;;23.27;15.18;;;;;;;-4.26;90.22;95868.06;5030790;28;24857;-72
2022/03/04 05:34:12;;;;;;;16.42;14.07;;;;;;;-4.29;90.75;95866.38;5029988;28;25000;-72
2022/03/04 05:36:39;;;;;;;16.90;14.07;;;;;;;-4.22;86.59;95865.50;5031063;28;24527;-72
2022/03/04 05:39:06;;;;;;;16.90;14.07;;;;;;;-4.40;89.04;95873.13;5034325;28;24499;-72
2022/03/04 05:41:32;;;;;;;16.35;14.57;;;;;;;-4.44;89.83;95871.47;5034377;28;24498;-73
2022/03/04 05:43:59;;;;;;;19.30;14.75;;;;;;;-4.43;90.71;95875.66;5034760;28;24432;-73
2022/03/04 05:46:26;;;;;;;18.95;14.95;;;;;;;-4.37;89.55;95888.31;5024604;28;24448;-73
2022/03/04 05:48:53;;;;;;;17.40;14.33;;;;;;;-4.36;89.93;95895.03;5024422;28;24435;-73
2022/03/04 05:51:20;;;;;;;18.23;15.40;;;;;;;-4.33;89.46;95882.41;5034065;28;24474;-73
2022/03/04 05:53:49;;;;;;;18.00;15.18;;;;;;;-4.35;91.06;95889.13;5016687;28;24428;-74
2022/03/04 05:56:16;;;;;;;19.73;16.63;;;;;;;-4.20;90.15;95896.66;5043747;28;24470;-72
2022/03/04 05:58:42;;;;;;;23.58;18.30;;;;;;;-4.27;88.84;95899.22;5034381;28;24432;-72
2022/03/04 06:01:09;;;;;;;24.67;19.85;;;;;;;-4.41;90.11;95902.66;5033636;28;24427;-72
2022/03/04 06:03:36;;;;;;;25.65;18.98;;;;;;;-4.47;90.26;95906.88;5033897;28;24434;-72
2022/03/04 06:06:05;;;;;;;25.95;19.08;;;;;;;-4.45;90.34;95895.03;5033725;28;24806;-72
2022/03/04 06:08:31;;;;;;;23.02;17.13;;;;;;;-4.56;92.03;95904.34;5033649;28;24830;-72
2022/03/04 06:10:58;;;;;;;23.48;17.25;;;;;;;-4.68;92.41;95903.53;5033482;28;24439;-72
2022/03/04 06:13:25;;;;;;;21.17;16.67;;;;;;;-4.65;92.51;95907.75;5034048;28;24476;-73
2022/03/04 06:15:51;;;;;;;19.80;16.70;;;;;;;-4.57;92.63;95907.72;5033555;28;24789;-72
2022/03/04 06:18:18;;;;;;;30.10;17.63;;;;;;;-4.43;92.43;95903.47;5033340;28;24428;-73
2022/03/04 06:20:45;;;;;;;23.05;17.00;;;;;;;-4.25;91.65;95900.91;5033558;28;24435;-74
2022/03/04 06:23:13;;;;;;;27.20;17.55;;;;;;;-4.14;91.04;95906.75;5033503;28;24431;-73
2022/03/04 06:25:40;;;;;;;26.77;17.00;;;;;;;-4.06;89.93;95903.38;5052649;28;24547;-72
2022/03/04 06:28:06;;;;;;;30.35;17.10;;;;;;;-3.91;89.52;95916.78;5053397;28;24827;-72
2022/03/04 06:30:36;;;;;;;28.40;17.17;;;;;;;-3.85;89.30;95915.94;5053749;28;24501;-72
2022/03/04 06:35:56;;;;;;;23.60;16.40;;;;;;;-3.57;88.66;95925.91;5053219;28;24493;-72
2022/03/04 06:38:24;;;;;;;19.02;15.75;;;;;;;-3.36;87.24;95925.78;5053657;28;24426;-72
2022/03/04 06:40:51;;;;;;;19.45;16.08;;;;;;;-3.35;86.81;95924.94;5053879;28;24492;-73
2022/03/04 06:43:18;;;;;;;22.23;15.43;;;;;;;-3.33;88.14;95930.84;5053564;28;24438;-73
2022/03/04 06:45:46;;;;;;;18.63;15.65;;;;;;;-3.29;88.34;95927.44;5053153;28;24948;-72
2022/03/04 06:48:14;;;;;;;18.02;15.98;;;;;;;-3.19;88.26;95928.19;5053099;28;24426;-73
2022/03/04 06:50:41;;;;;;;26.17;16.48;;;;;;;-3.18;88.38;95929.91;5053267;28;24474;-73
2022/03/04 06:53:07;;;;;;;19.87;16.37;;;;;;;-3.22;88.83;95931.63;5053270;28;24438;-72
2022/03/04 06:55:35;;;;;;;21.05;16.40;;;;;;;-3.30;91.33;95937.56;5039950;28;24447;-72
2022/03/04 06:58:02;;;;;;;20.48;17.15;;;;;;;-3.23;91.34;95936.66;5027190;28;24432;-72
2022/03/04 07:00:29;;;;;;;28.13;18.20;;;;;;;-3.08;90.54;95943.31;5033416;28;24454;-73
2022/03/04 07:02:55;;;;;;;25.77;17.90;;;;;;;-2.93;89.04;95941.53;5032653;28;24420;-73
2022/03/04 07:05:22;;;;;;;27.73;18.25;;;;;;;-2.81;87.84;95939.78;5032148;28;24428;-73
2022/03/04 07:07:49;;;;;;;26.63;18.42;;;;;;;-2.79;89.83;95938.03;5032643;28;24439;-73
2022/03/04 07:10:16;;;;;;;25.95;18.00;;;;;;;-2.68;90.30;95946.41;5032596;28;24984;-73
2022/03/04 07:12:44;;;;;;;24.75;17.20;;;;;;;-2.58;90.79;95942.09;5032628;28;24424;-73
2022/03/04 07:15:11;;;;;;;24.08;17.42;;;;;;;-2.41;90.86;95941.94;5032581;28;24481;-73
2022/03/04 07:17:37;;;;;;;21.92;18.30;;;;;;;-2.17;90.05;95945.94;5032163;28;24431;-73
2022/03/04 07:20:04;;;;;;;24.23;19.50;;;;;;;-1.96;90.07;95950.78;5032913;28;24415;-73
2022/03/04 07:22:31;;;;;;;28.13;18.52;;;;;;;-1.76;89.67;95948.84;5032409;28;24991;-73
2022/03/04 07:24:57;;;;;;;24.60;18.63;;;;;;;-1.60;88.65;95946.13;5032662;28;24486;-73
2022/03/04 07:27:24;;;;;;;23.67;18.48;;;;;;;-1.44;89.39;95955.25;5032367;28;24455;-73
2022/03/04 07:29:52;;;;;;;21.45;17.45;;;;;;;-1.23;88.83;95954.94;5032251;28;24436;-73
2022/03/04 07:32:18;;;;;;;19.65;16.10;;;;;;;-1.04;86.58;95954.66;5031935;28;24444;-73
2022/03/04 07:34:45;;;;;;;19.15;16.13;;;;;;;-0.79;84.69;95963.59;5032145;28;24952;-73
2022/03/04 07:37:11;;;;;;;22.92;16.27;;;;;;;-0.50;84.62;95957.22;5032137;28;24431;-73
2022/03/04 07:39:37;;;;;;;19.75;16.42;;;;;;;-0.23;83.82;95958.44;5032062;28;24637;-73
2022/03/04 07:42:05;;;;;;;23.52;16.88;;;;;;;-0.03;82.32;95956.41;5032002;28;24478;-72
2022/03/04 07:44:31;;;;;;;18.75;16.80;;;;;;;0.13;80.17;95964.59;5032379;28;24519;-73
2022/03/04 07:46:59;;;;;;;29.88;18.77;;;;;;;0.32;81.06;95961.69;5031563;28;24439;-72
2022/03/04 07:49:26;;;;;;;22.60;17.27;;;;;;;0.54;80.57;95957.84;5031731;28;24431;-73
2022/03/04 07:51:52;;;;;;;24.75;17.65;;;;;;;0.77;79.47;95959.91;5032165;28;24475;-73
2022/03/04 07:54:19;;;;;;;22.92;17.20;;;;;;;0.91;78.77;95967.25;5032339;28;24466;-73
2022/03/04 07:56:45;;;;;;;21.38;17.55;;;;;;;1.10;78.44;95960.03;5031755;28;24526;-74
2022/03/04 07:59:12;;;;;;;21.83;17.27;;;;;;;1.28;77.45;95969.81;5030619;28;24474;-74
2022/03/04 08:01:38;;;;;;;21.42;16.95;;;;;;;1.54;77.77;95973.47;5032118;28;24454;-73
2022/03/04 08:04:08;;;;;;;20.25;16.20;;;;;;;1.78;76.56;95964.34;5032302;28;24424;-74
2022/03/04 08:06:34;;;;;;;18.93;16.43;;;;;;;2.07;75.67;95971.25;5032141;28;24961;-74
2022/03/04 08:09:01;;;;;;;24.65;17.35;;;;;;;2.22;71.93;95967.47;5032471;28;24412;-74
2022/03/04 08:11:28;;;;;;;20.55;16.25;;;;;;;2.35;73.75;95958.59;5032098;28;24448;-74
2022/03/04 08:13:55;;;;;;;21.60;17.65;;;;;;;2.51;70.04;95959.84;5032123;28;24482;-74
2022/03/04 08:16:21;;;;;;;22.80;16.90;;;;;;;2.62;67.21;95960.38;5032332;28;24435;-74
2022/03/04 08:18:48;;;;;;;20.55;16.95;;;;;;;2.29;67.36;95962.16;5034073;28;24415;-75
2022/03/04 08:21:16;;;;;;;21.10;16.63;;;;;;;2.62;69.06;95962.94;5035520;28;24431;-74
2022/03/04 08:23:42;;;;;;;23.17;17.07;;;;;;;2.54;66.71;95961.47;5033440;28;24435;-75
2022/03/04 08:26:09;;;;;;;21.30;17.30;;;;;;;2.42;66.75;95957.56;5024712;28;24441;-75
2022/03/04 08:28:36;;;;;;;29.93;18.87;;;;;;;1.88;69.16;95953.03;5031931;28;24439;-74
2022/03/04 08:31:10;;;;;;;21.85;18.10;;;;;;;1.71;71.30;95956.03;5031892;28;24447;-74
2022/03/04 08:33:37;;;;;;;20.63;17.80;;;;;;;1.89;71.55;95960.66;5032033;28;24810;-74
2022/03/04 08:36:03;;;;;;;24.45;18.35;;;;;;;2.43;72.17;95957.50;5031626;28;24521;-73
2022/03/04 08:38:31;;;;;;;28.35;18.70;;;;;;;2.96;68.08;95959.38;5031618;28;24486;-73
2022/03/04 08:40:58;;;;;;;23.60;18.08;;;;;;;3.42;66.84;95962.28;5031116;28;24412;-74
2022/03/04 08:43:25;;;;;;;26.30;19.77;;;;;;;3.82;62.39;95961.78;5030845;28;24489;-74
2022/03/04 08:45:51;;;;;;;26.57;19.63;;;;;;;4.23;58.25;95964.72;5030546;28;24459;-74
2022/03/04 08:48:18;;;;;;;24.85;19.27;;;;;;;4.38;57.99;95963.34;5030139;28;24473;-73
2022/03/04 08:50:44;;;;;;;23.13;19.25;;;;;;;4.66;57.18;95966.56;5030739;28;24470;-72
2022/03/04 08:53:11;;;;;;;26.13;18.15;;;;;;;4.73;53.76;95962.06;5030725;28;24416;-73
2022/03/04 08:55:41;;;;;;;26.67;19.67;;;;;;;4.78;52.90;95961.00;5030351;28;24436;-73
2022/03/04 08:58:08;;;;;;;21.27;18.88;;;;;;;4.90;55.35;95964.84;5030711;28;24426;-73
2022/03/04 09:00:34;;;;;;;30.15;18.00;;;;;;;4.61;52.10;95969.31;5030943;28;24423;-74
2022/03/04 09:03:00;;;;;;;27.58;19.15;;;;;;;4.93;54.30;95971.56;5031134;28;24459;-74
2022/03/04 09:05:27;;;;;;;22.13;18.83;;;;;;;5.15;53.04;95969.03;5030695;28;24466;-73
2022/03/04 09:07:53;;;;;;;27.60;20.25;;;;;;;5.16;53.84;95966.41;5030862;28;24431;-73
2022/03/04 09:10:20;;;;;;;26.67;19.17;;;;;;;5.05;50.34;95974.53;5031089;28;24501;-73
2022/03/04 09:12:48;;;;;;;22.13;17.88;;;;;;;5.34;50.97;95973.41;5031018;28;24857;-73
2022/03/04 09:15:14;;;;;;;25.30;19.27;;;;;;;5.55;54.02;95974.28;5031028;28;24857;-73
2022/03/04 09:17:41;;;;;;;22.43;18.67;;;;;;;5.41;49.62;95968.84;5030718;28;24419;-73
2022/03/04 09:20:08;;;;;;;24.90;18.73;;;;;;;5.51;50.02;95972.72;5030451;28;24466;-72
2022/03/04 09:22:34;;;;;;;21.23;18.33;;;;;;;5.83;52.02;95962.91;5026765;28;24525;-72
2022/03/04 09:25:01;;;;;;;23.33;18.00;;;;;;;6.10;49.79;95968.66;5027785;28;24869;-72
2022/03/04 09:27:28;;;;;;;24.63;18.27;;;;;;;6.20;50.76;95961.41;5029491;28;24416;-72
2022/03/04 09:29:55;;;;;;;25.13;18.20;;;;;;;6.19;47.33;95967.44;5045495;28;24442;-72
2022/03/04 09:32:23;;;;;;;24.67;18.48;;;;;;;6.09;48.63;95964.44;5050288;28;24443;-72
2022/03/04 09:34:50;;;;;;;24.58;18.05;;;;;;;6.26;47.03;95972.25;5049934;28;24465;-72
2022/03/04 09:37:17;;;;;;;24.80;19.10;;;;;;;6.24;48.99;95958.63;5049673;28;24462;-72
2022/03/04 09:39:43;;;;;;;20.25;17.73;;;;;;;6.40;50.00;95956.22;5049977;28;24457;-72
2022/03/04 09:42:09;;;;;;;29.20;18.48;;;;;;;6.72;43.87;95970.28;5050098;28;24481;-72
2022/03/04 09:44:36;;;;;;;23.42;18.10;;;;;;;6.58;45.55;95966.63;5050080;28;24419;-72
2022/03/04 09:47:05;;;;;;;24.77;18.13;;;;;;;6.69;46.00;95975.53;5049838;28;24415;-72
2022/03/04 09:49:34;;;;;;;22.38;17.65;;;;;;;6.86;46.88;95977.38;5049657;28;24427;-72
2022/03/04 09:52:01;;;;;;;23.23;17.20;;;;;;;6.81;43.41;95975.91;5045906;28;24502;-72
2022/03/04 09:54:28;;;;;;;23.58;17.73;;;;;;;6.76;46.88;95978.69;5030329;28;24424;-73
2022/03/04 09:56:55;;;;;;;20.70;16.48;;;;;;;6.60;47.01;95973.41;5029848;28;24438;-72
2022/03/04 09:59:21;;;;;;;25.55;17.50;;;;;;;6.40;44.35;95978.56;5029633;28;24948;-74
2022/03/04 10:01:48;;;;;;;24.23;17.40;;;;;;;6.45;45.81;95982.63;5030441;28;24416;-74
2022/03/04 10:04:16;;;;;;;31.00;17.27;;;;;;;6.33;43.85;95983.13;5030262;28;24495;-71
2022/03/04 10:06:48;;;;;;;21.88;16.90;;;;;;;6.24;43.68;95976.63;5030085;28;24420;-73
2022/03/04 10:09:34;;;;;;;23.42;16.98;;;;;;;6.28;44.79;95978.19;5030098;28;24428;-72
2022/03/04 10:12:02;;;;;;;29.80;17.98;;;;;;;6.37;44.22;95976.94;5029937;28;24854;-71
2022/03/04 10:14:29;;;;;;;22.42;17.33;;;;;;;6.53;43.94;95977.13;5030054;28;24451;-72
2022/03/04 10:16:57;;;;;;;22.38;16.83;;;;;;;6.59;44.89;95981.16;5029553;28;24420;-72
2022/03/04 10:19:26;;;;;;;23.42;16.80;;;;;;;6.85;44.41;95980.84;5029723;28;24949;-72
2022/03/04 10:21:54;;;;;;;25.27;17.00;;;;;;;7.01;44.25;95973.28;5030273;28;24428;-72
2022/03/04 10:24:22;;;;;;;29.65;17.98;;;;;;;6.91;43.56;95978.00;5033237;28;24442;-73
2022/03/04 10:26:58;;;;;;;22.20;17.30;;;;;;;7.01;44.42;95981.00;5033475;28;24419;-72
2022/03/04 10:29:26;;;;;;;25.52;17.67;;;;;;;6.98;43.42;95976.81;5033286;28;24439;-75
2022/03/04 10:32:09;;;;;;;23.80;15.93;;;;;;;7.08;45.71;95973.81;5033621;28;24506;-72
2022/03/04 10:34:52;;;;;;;22.97;16.63;;;;;;;6.65;43.48;95975.75;5033133;28;24508;-71
2022/03/04 10:37:21;;;;;;;23.08;17.83;;;;;;;6.76;44.82;95974.38;5032862;28;24960;-71
2022/03/04 10:40:02;;;;;;;22.87;17.50;;;;;;;6.88;45.48;95970.41;5032317;28;24620;-71
2022/03/04 10:42:39;;;;;;;22.48;17.08;;;;;;;7.02;47.29;95968.06;5033109;28;24959;-71
2022/03/04 10:45:07;;;;;;;25.13;16.88;;;;;;;6.81;41.33;95969.00;5033084;28;24469;-71
2022/03/04 10:47:40;;;;;;;21.00;16.88;;;;;;;6.91;44.70;95970.28;5032182;28;24839;-71
2022/03/04 10:50:08;;;;;;;23.05;16.17;;;;;;;6.94;44.25;95959.00;5032603;28;24511;-71
2022/03/04 10:52:48;;;;;;;23.52;17.60;;;;;;;6.68;45.95;95965.34;5032615;28;24539;-71
2022/03/04 10:55:14;;;;;;;24.85;16.55;;;;;;;6.44;42.23;95965.47;5032379;28;24976;-71
2022/03/04 10:57:41;;;;;;;19.60;16.17;;;;;;;6.95;43.26;95966.66;5032073;28;24434;-71
2022/03/04 11:00:09;;;;;;;23.92;17.45;;;;;;;7.05;41.90;95958.53;5032626;28;24424;-71
2022/03/04 11:02:44;;;;;;;26.50;16.67;;;;;;;7.27;45.18;95966.94;5032371;28;24416;-71
2022/03/04 11:05:12;;;;;;;24.17;17.15;;;;;;;7.38;47.65;95958.69;5032485;28;24465;-71
2022/03/04 11:07:42;;;;;;;30.30;17.35;;;;;;;7.37;41.91;95970.72;5032047;28;24423;-71
2022/03/04 11:10:09;;;;;;;23.52;17.60;;;;;;;7.17;40.67;95963.94;5030542;28;24514;-71
2022/03/04 11:12:36;;;;;;;25.20;17.60;;;;;;;7.19;41.41;95958.69;5027255;28;24837;-71
2022/03/04 11:15:03;;;;;;;23.52;16.88;;;;;;;7.21;40.03;95960.31;5032062;28;24790;-71
2022/03/04 11:17:30;;;;;;;27.40;16.77;;;;;;;7.31;42.10;95968.47;5031231;28;24475;-71
2022/03/04 11:19:57;;;;;;;25.65;17.00;;;;;;;7.13;42.07;95959.00;5032346;28;24486;-71
2022/03/04 11:22:25;;;;;;;24.67;17.52;;;;;;;7.08;41.52;95960.94;5032316;28;24840;-71